• Join FlightAware (Why Join?)
  • Login
  • US Flag 
10:50PM EDT


 

Airport Tracker/Info


-or-


 

Live Flight TrackerFlight Track Log ✈ RPA3392 ✈ 07-May-2013 ✈ KMSP - KDCA

Flight Track Log - Related Links

Times and Time Zones

All times are in EDT time to prevent confusion due to time zone crossing. See the RPA3392 flight status page for this flight to view local times or setup timezone preferences in your user account.

Time Position Orientation Groundspeed Altitude Reporting Facility
EDT Latitude Longitude Course Direction KTS MPH feet Rate Location/Type
05:52PM 44.8500 -93.2167 131° Southeast 161 185 2,200  Level Minneapolis TRACON
05:52PM 44.8314 -93.1869 131° Southeast 173 199 3,300 1,620 Climbing Minneapolis Center
05:53PM 44.8050 -93.1014 113° Southeast 248 285 4,900 2,040 Climbing Minneapolis Center
05:54PM 44.7772 -93.0003 111° Southeast 274 315 7,600 2,580 Climbing Minneapolis Center
05:55PM 44.7481 -92.8950 111° Southeast 286 329 10,300 2,340 Climbing Minneapolis Center
05:56PM 44.7181 -92.7869 111° Southeast 296 341 12,500 1,740 Climbing Minneapolis Center
05:57PM 44.6853 -92.6683 111° Southeast 330 380 14,000 1,500 Climbing Minneapolis Center
05:58PM 44.6422 -92.5142 111° Southeast 357 411 15,600 1,500 Climbing Minneapolis Center
05:59PM 44.6039 -92.3778 112° Southeast 380 437 17,200 1,500 Climbing Minneapolis Center
06:00PM 44.5642 -92.2406 112° Southeast 378 435 18,800 1,440 Climbing Minneapolis Center
06:01PM 44.5064 -92.1119 122° Southeast 395 455 20,200 1,260 Climbing Minneapolis Center
06:02PM 44.4417 -91.9875 126° Southeast 395 455 21,500 1,380 Climbing Minneapolis Center
06:04PM 44.3753 -91.8622 127° Southeast 400 460 23,100 1,740 Climbing Minneapolis Center
06:05PM 44.3117 -91.7036 119° Southeast 394 453 25,100 1,500 Climbing Minneapolis Center
06:06PM 44.2617 -91.5686 117° Southeast 394 453 26,300 1,140 Climbing Minneapolis Center
06:07PM 44.2094 -91.4317 118° Southeast 396 456 27,500 1,200 Climbing Minneapolis Center
06:08PM 44.1569 -91.2950 118° Southeast 400 460 28,800 1,080 Climbing Minneapolis Center
06:09PM 44.1050 -91.1597 118° Southeast 404 465 29,800 960 Climbing Minneapolis Center
06:10PM 44.0386 -90.9892 118° Southeast 416 479 30,900 960 Climbing Minneapolis Center
06:11PM 43.9842 -90.8458 118° Southeast 422 486 31,800 1,020 Climbing Minneapolis Center
06:12PM 43.9278 -90.7042 119° Southeast 424 488 33,100 1,320 Climbing Minneapolis Center
06:13PM 43.8700 -90.5575 119° Southeast 411 473 34,600 900 Climbing Minneapolis Center
06:14PM 43.8164 -90.4231 119° Southeast 400 460 35,000 180 Climbing Minneapolis Center
06:15PM 43.7572 -90.2739 119° Southeast 398 458 35,000  Level Minneapolis Center
06:16PM 43.7008 -90.1358 119° Southeast 394 453 35,000  Level Minneapolis Center
06:17PM 43.6481 -90.0033 119° Southeast 394 453 35,000  Level Minneapolis Center
06:18PM 43.5958 -89.8719 119° Southeast 392 451 35,000  Level Minneapolis Center
06:19PM 43.5594 -89.7853 120° Southeast 390 449 35,000  Level Chicago Center
06:20PM 43.5161 -89.6456 113° Southeast 395 455 35,000  Level Chicago Center
06:21PM 43.4764 -89.5047 111° Southeast 394 453 35,000  Level Chicago Center
06:22PM 43.4358 -89.3656 112° Southeast 393 452 35,000  Level Chicago Center
06:23PM 43.3886 -89.2025 112° Southeast 393 452 35,000  Level Chicago Center
06:24PM 43.3483 -89.0647 112° Southeast 391 450 35,000  Level Chicago Center
06:25PM 43.3075 -88.9258 112° Southeast 392 451 35,000  Level Chicago Center
06:26PM 43.2667 -88.7883 112° Southeast 391 450 35,000  Level Chicago Center
06:27PM 43.2256 -88.6508 112° Southeast 393 452 35,000  Level Chicago Center
06:28PM 43.1783 -88.4914 112° Southeast 393 452 35,000  Level Chicago Center
06:29PM 43.1372 -88.3547 112° Southeast 392 451 35,000  Level Chicago Center
06:30PM 43.1089 -88.2125 105° East 391 450 35,000  Level Chicago Center
06:31PM 43.0928 -88.0653 98° East 392 451 35,000  Level Chicago Center
06:32PM 43.0733 -87.8939 99° East 392 451 35,000  Level Chicago Center
06:33PM 43.0575 -87.7469 98° East 391 450 35,000  Level Chicago Center
06:34PM 43.0417 -87.5975 98° East 396 456 35,000  Level Chicago Center
06:35PM 43.0247 -87.4508 99° East 393 452 35,000  Level Chicago Center
06:36PM 43.0072 -87.2903 98° East 396 456 35,000  Level Chicago Center
06:37PM 42.9908 -87.1428 99° East 395 455 35,000  Level Chicago Center
06:38PM 42.9731 -86.9942 99° East 397 457 35,000  Level Chicago Center
06:39PM 42.9556 -86.8469 99° East 394 453 35,000  Level Chicago Center
06:40PM 42.9336 -86.6692 100° East 397 457 35,000  Level Chicago Center
06:41PM 42.9161 -86.5219 99° East 397 457 35,000  Level Chicago Center
06:42PM 42.8983 -86.3753 99° East 394 453 35,000  Level Chicago Center
06:43PM 42.8797 -86.2289 100° East 397 457 35,000  Level Chicago Center
06:45PM 42.8606 -86.0833 100° East 397 457 35,000  Level Chicago Center
06:46PM 42.8397 -85.9081 99° East 398 458 35,000  Level Chicago Center
06:47PM 42.8217 -85.7625 100° East 397 457 35,000  Level Chicago Center
06:48PM 42.8017 -85.6150 100° East 398 458 35,000  Level Chicago Center
06:49PM 42.7778 -85.4703 103° East 396 456 35,000  Level Chicago Center
06:50PM 42.7300 -85.3347 116° Southeast 396 456 35,000  Level Chicago Center
06:51PM 42.6736 -85.1736 115° Southeast 395 455 35,000  Level Chicago Center
06:52PM 42.6261 -85.0392 116° Southeast 395 455 35,000  Level Chicago Center
06:53PM 42.5778 -84.9053 116° Southeast 396 456 35,000  Level Chicago Center
06:54PM 42.5306 -84.7725 116° Southeast 394 453 35,000  Level Chicago Center
06:55PM 42.4833 -84.6389 116° Southeast 393 452 35,000  Level Chicago Center
06:56PM 42.4256 -84.4797 116° Southeast 393 452 35,000  Level Chicago Center
06:57PM 42.3769 -84.3467 116° Southeast 394 453 35,000  Level Chicago Center
06:58PM 42.3289 -84.2147 116° Southeast 393 452 35,000  Level Chicago Center
06:59PM 42.2758 -84.0772 118° Southeast 399 459 35,000  Level Cleveland Center
07:00PM 42.2275 -83.9483 117° Southeast 394 453 35,000  Level Cleveland Center
07:01PM 42.1792 -83.8167 116° Southeast 394 453 35,000  Level Cleveland Center
07:02PM 42.1286 -83.6883 118° Southeast 394 453 35,000  Level Cleveland Center
07:03PM 42.0781 -83.5403 115° Southeast 399 459 35,000  Level Cleveland Center
07:04PM 42.0231 -83.4147 120° Southeast 393 452 35,000  Level Cleveland Center
07:05PM 41.9611 -83.2975 125° Southeast 394 453 35,000  Level Cleveland Center
07:06PM 41.8967 -83.1969 131° Southeast 394 453 35,000  Level Cleveland Center
07:07PM 41.8178 -83.0936 136° Southeast 394 453 35,000  Level Cleveland Center
07:08PM 41.7386 -82.9903 136° Southeast 394 453 35,000  Level Cleveland Center
07:09PM 41.6594 -82.8872 136° Southeast 394 453 35,000  Level Cleveland Center
07:10PM 41.5822 -82.7844 135° Southeast 394 453 35,000  Level Cleveland Center
07:11PM 41.5028 -82.6847 137° Southeast 399 459 35,000  Level Cleveland Center
07:12PM 41.4233 -82.5797 135° Southeast 399 459 35,000  Level Cleveland Center
07:13PM 41.3461 -82.4778 135° Southeast 399 459 35,000  Level Cleveland Center
07:14PM 41.2664 -82.3758 136° Southeast 394 453 35,000  Level Cleveland Center
07:15PM 41.1886 -82.2772 136° Southeast 394 453 35,000  Level Cleveland Center
07:16PM 41.1089 -82.1761 136° Southeast 394 453 35,000  Level Cleveland Center
07:17PM 41.0289 -82.0750 136° Southeast 394 453 35,000 -240 Level Cleveland Center
07:18PM 40.9486 -81.9769 137° Southeast 399 459 34,600 -900 Descending Cleveland Center
07:19PM 40.8708 -81.8764 136° Southeast 399 459 33,200 -840 Descending Cleveland Center
07:20PM 40.7886 -81.7706 136° Southeast 393 452 33,000 -120 Descending Cleveland Center
07:21PM 40.7122 -81.6761 137° Southeast 388 447 33,000  Level Cleveland Center
07:22PM 40.6361 -81.5817 137° Southeast 381 438 33,000  Level Cleveland Center
07:23PM 40.5597 -81.4850 136° Southeast 375 432 33,000  Level Cleveland Center
07:24PM 40.4894 -81.3911 135° Southeast 375 432 33,000  Level Cleveland Center
07:25PM 40.4192 -81.3058 137° Southeast 370 426 33,000  Level Cleveland Center
07:26PM 40.3428 -81.2122 137° Southeast 370 426 33,000  Level Cleveland Center
07:27PM 40.2681 -81.1192 136° Southeast 370 426 33,000  Level Cleveland Center
07:28PM 40.1914 -81.0233 136° Southeast 370 426 33,000  Level Cleveland Center
07:29PM 40.1144 -80.9333 138° Southeast 370 426 33,000  Level Cleveland Center
07:30PM 40.0397 -80.8381 136° Southeast 370 426 33,000  Level Cleveland Center
07:31PM 39.9692 -80.7403 133° Southeast 370 426 33,000  Level Cleveland Center
07:32PM 39.9150 -80.6264 122° Southeast 365 420 33,000  Level Cleveland Center
07:33PM 39.8628 -80.5156 122° Southeast 365 420 33,000  Level Cleveland Center
07:34PM 39.8086 -80.4047 122° Southeast 365 420 33,000  Level Cleveland Center
07:36PM 39.7192 -80.2075 120° Southeast 375 432 33,000  Level Washington Center
07:37PM 39.6650 -80.0961 122° Southeast 375 432 33,000  Level Washington Center
07:38PM 39.6128 -79.9878 122° Southeast 365 420 33,000  Level Washington Center
07:39PM 39.5603 -79.8822 123° Southeast 360 414 33,000 -540 Level Washington Center
07:40PM 39.5100 -79.7717 120° Southeast 360 414 32,000 -1,020 Descending Washington Center
07:41PM 39.4514 -79.6556 123° Southeast 365 420 31,000 -540 Descending Washington Center
07:42PM 39.3969 -79.5394 121° Southeast 377 434 31,000  Level Washington Center
07:43PM 39.3422 -79.4239 121° Southeast 377 434 31,000 -900 Level Washington Center
07:44PM 39.2833 -79.3056 123° Southeast 377 434 29,300 -1,740 Descending Washington Center
07:45PM 39.2417 -79.1719 112° Southeast 377 434 27,500 -1,380 Descending Washington Center
07:46PM 39.2308 -79.0456 96° East 357 411 26,600 -1,080 Descending Washington Center
07:47PM 39.2178 -78.9164 97° East 357 411 25,400 -1,620 Descending Washington Center
07:48PM 39.2064 -78.7925 97° East 357 411 23,500 -1,920 Descending Washington Center
07:49PM 39.1950 -78.6717 97° East 352 405 21,600 -1,860 Descending Washington Center
07:50PM 39.1814 -78.5478 98° East 352 405 19,800 -1,860 Descending Washington Center
07:51PM 39.1717 -78.4297 96° East 346 398 18,000 -1,680 Descending Washington Center
07:52PM 39.1514 -78.3164 103° East 332 382 16,600 -1,200 Descending Washington Center
07:53PM 39.1247 -78.2083 108° East 321 369 15,700 -900 Descending Washington Center
07:54PM 39.0978 -78.1003 108° East 321 369 14,900 -900 Descending Washington Center
07:55PM 39.0708 -77.9953 108° East 316 364 13,900 -1,020 Descending Washington Center
07:56PM 39.0417 -77.8872 109° East 311 358 12,900 -1,320 Descending Washington Center
07:57PM 39.0164 -77.7878 108° East 303 349 11,300 -960 Descending Washington Center
07:58PM 38.9950 -77.7017 108° East 291 335 11,000 -780 Descending Washington Center
07:59PM 38.9500 -77.5333 109° East 262 302 9,400 -1,080 Descending Potomac TRACON
08:00PM 38.9167 -77.4667 123° Southeast 257 296 8,200 -1,200 Descending Potomac TRACON
08:01PM 38.8833 -77.3833 117° Southeast 253 291 7,000 -1,140 Descending Potomac TRACON
08:02PM 38.8500 -77.3000 117° Southeast 246 283 6,000 -540 Descending Potomac TRACON
08:03PM 38.8167 -77.2333 123° Southeast 246 283 6,000 -180 Level Potomac TRACON
08:04PM 38.7833 -77.1500 117° Southeast 237 273 5,700 -720 Descending Potomac TRACON
08:06PM 38.7333 -77.1167 153° Southeast 203 234 4,500 -1,380 Descending Potomac TRACON
08:06PM 38.6833 -77.1000 165° South 204 235 3,000 -1,020 Descending Potomac TRACON
08:08PM 38.6500 -77.0833 159° South 176 203 2,500 -240 Descending Potomac TRACON
08:09PM 38.6667 -77.0333 67° East 166 191 2,500 -60 Level Potomac TRACON
08:10PM 38.7167 -77.0167 15° North 187 215 2,400 -540 Descending Potomac TRACON
08:11PM 38.7667 -77.0333 345° North 181 208 1,500 -900 Descending Potomac TRACON
08:12PM 38.8167 -77.0333 360° North 139 160 700 -840 Descending Potomac TRACON